Meadowlands, Minnesota
Current Conditions -  °F | °C
As of 9:53 PM on Friday 19 Dec 2014 (Local Time) from KHIB Reporting Station
Haze Haze  
Wind Chill: 16°   Ceiling: 400
Heat Index: 25°   Visibility: 5mi
Dew Point: 22°   Wind: 8mph
Humidity: 88%   Direction: 160°SSE
Pressure: 30.11"   Gusts: NA
Location:  47.07°N, 92.73°W
Report Text: KHIB 200353Z AUTO 16007KT 5SM BR OVC004 M04/M06 A3011 RMK AO2 SLP220 T10391056
Loading
Personal Weather Stations






























Interactive Weather Map New forecast layout! Learn more

10-Day Weather Forecast

Advertisements
Track Severe Weather on mobile